createdAt,value
2024-01-05T00:01:16.369Z,99319.19
2024-01-05T00:03:42.925Z,99324.88
2024-01-05T00:06:09.427Z,99328.22
2024-01-05T00:08:35.906Z,99334.47
2024-01-05T00:11:02.331Z,99334.47
2024-01-05T00:13:28.822Z,99350.78
2024-01-05T00:15:55.279Z,99349.22
2024-01-05T00:18:22.623Z,99364.31
2024-01-05T00:20:49.141Z,99360.03
2024-01-05T00:23:15.576Z,99363.91
2024-01-05T00:25:42.037Z,99363.13
2024-01-05T00:28:08.496Z,99374.59
2024-01-05T00:30:35.010Z,99372.78
2024-01-05T00:33:01.643Z,99387.38
2024-01-05T00:35:28.129Z,99386.94
2024-01-05T00:37:54.546Z,99396.19
2024-01-05T00:40:21.855Z,99399.78
2024-01-05T00:42:48.386Z,99411.78
2024-01-05T00:45:14.893Z,99412.50
2024-01-05T00:47:41.391Z,99414.50
2024-01-05T00:50:07.902Z,99423.81
2024-01-05T00:52:34.330Z,99424.34
2024-01-05T00:55:00.761Z,99423.97
2024-01-05T00:57:27.322Z,99430.19
2024-01-05T00:59:53.859Z,99429.63
2024-01-05T01:02:20.353Z,99438.03
2024-01-05T01:04:46.855Z,99436.09
2024-01-05T01:07:13.286Z,99435.81
2024-01-05T01:09:39.726Z,99444.63
2024-01-05T01:12:06.259Z,99446.91
2024-01-05T01:14:32.670Z,99447.63
2024-01-05T01:16:59.093Z,99447.22
2024-01-05T01:19:25.640Z,99445.88
2024-01-05T01:21:52.175Z,99453.66
2024-01-05T01:24:18.626Z,99453.00
2024-01-05T01:26:45.308Z,99456.38
2024-01-05T01:29:11.867Z,99460.38
2024-01-05T01:31:38.404Z,99463.94
2024-01-05T01:34:04.922Z,99467.84
2024-01-05T01:36:31.431Z,99468.25
2024-01-05T01:38:57.925Z,99473.09
2024-01-05T01:41:24.308Z,99471.97
2024-01-05T01:43:53.216Z,99478.19
2024-01-05T01:46:20.202Z,99478.72
2024-01-05T01:48:46.742Z,99480.59
2024-01-05T01:51:13.301Z,99482.75
2024-01-05T01:53:39.701Z,99484.69
2024-01-05T01:56:06.145Z,99487.53
2024-01-05T01:58:32.523Z,99476.06
2024-01-05T02:01:01.770Z,99472.88
2024-01-05T02:03:28.266Z,99480.31
2024-01-05T02:05:57.522Z,99478.78
2024-01-05T02:08:24.006Z,99486.00
2024-01-05T02:10:50.454Z,99488.28
2024-01-05T02:13:16.905Z,99489.22
2024-01-05T02:15:43.309Z,99495.50
2024-01-05T02:18:09.902Z,99495.84
2024-01-05T02:20:36.388Z,99501.03
2024-01-05T02:23:02.840Z,99504.19
2024-01-05T02:25:29.251Z,99511.38
2024-01-05T02:27:55.637Z,99506.59
2024-01-05T02:30:22.112Z,99507.38
2024-01-05T02:32:48.654Z,99519.59
2024-01-05T02:35:15.098Z,99519.28
2024-01-05T02:37:41.503Z,99529.06
2024-01-05T02:40:07.880Z,99533.06
2024-01-05T02:42:34.336Z,99528.75
2024-01-05T02:45:00.810Z,99535.72
2024-01-05T02:47:27.274Z,99542.63
2024-01-05T02:49:53.941Z,99543.31
2024-01-05T02:52:20.432Z,99537.03
2024-01-05T02:54:46.876Z,99538.84
2024-01-05T02:57:13.270Z,99540.91
2024-01-05T02:59:39.698Z,99541.38
2024-01-05T03:02:06.091Z,99548.59
2024-01-05T03:04:32.530Z,99545.41
2024-01-05T03:06:58.991Z,99548.97
2024-01-05T03:09:25.400Z,99548.19
2024-01-05T03:11:51.902Z,99550.06
2024-01-05T03:14:18.306Z,99553.28
2024-01-05T03:16:44.994Z,99561.66
2024-01-05T03:19:11.777Z,99560.94
2024-01-05T03:21:41.128Z,99560.44
2024-01-05T03:24:07.591Z,99565.25
2024-01-05T03:26:33.957Z,99567.50
2024-01-05T03:29:00.356Z,99567.81
2024-01-05T03:31:26.766Z,99576.22
2024-01-05T03:33:53.361Z,99583.69
2024-01-05T03:36:19.875Z,99585.47
2024-01-05T03:38:46.277Z,99587.47
2024-01-05T03:41:12.666Z,99595.44
2024-01-05T03:43:39.096Z,99582.97
2024-01-05T03:46:08.280Z,99599.22
2024-01-05T03:48:34.812Z,99604.03
2024-01-05T03:51:01.303Z,99611.91
2024-01-05T03:53:27.703Z,99612.72
2024-01-05T03:55:56.883Z,99608.50
2024-01-05T03:58:23.322Z,99612.88
2024-01-05T04:00:52.573Z,99624.75
2024-01-05T04:03:21.984Z,99619.25
2024-01-05T04:05:51.402Z,99627.88
2024-01-05T04:08:17.809Z,99626.41
2024-01-05T04:10:44.180Z,99627.53
2024-01-05T04:13:10.553Z,99625.88
2024-01-05T04:15:37.036Z,99627.53
2024-01-05T04:18:03.665Z,99630.38
2024-01-05T04:20:30.095Z,99640.69
2024-01-05T04:22:56.499Z,99644.59
2024-01-05T04:25:25.670Z,99646.03
2024-01-05T04:27:52.048Z,99654.81
2024-01-05T04:30:18.463Z,99659.97
2024-01-05T04:32:47.759Z,99660.75
2024-01-05T04:35:14.169Z,99669.13
2024-01-05T04:37:40.545Z,99670.78
2024-01-05T04:40:06.956Z,99678.59
2024-01-05T04:42:33.425Z,99679.81
2024-01-05T04:44:59.884Z,99680.19
2024-01-05T04:47:29.109Z,99680.19
2024-01-05T04:49:58.300Z,99675.50
2024-01-05T04:52:27.532Z,99683.06
2024-01-05T04:54:53.896Z,99681.88
2024-01-05T04:57:20.308Z,99678.22
2024-01-05T04:59:49.506Z,99684.25
2024-01-05T05:02:18.693Z,99675.75
2024-01-05T05:04:48.908Z,99673.03
2024-01-05T05:07:15.435Z,99675.34
2024-01-05T05:09:41.823Z,99677.03
2024-01-05T05:12:08.351Z,99688.47
2024-01-05T05:14:34.797Z,99688.78
2024-01-05T05:17:03.993Z,99692.13
2024-01-05T05:19:30.492Z,99690.47
2024-01-05T05:21:59.722Z,99695.63
2024-01-05T05:24:26.153Z,99691.19
2024-01-05T05:26:52.629Z,99705.16
2024-01-05T05:29:21.891Z,99714.56
2024-01-05T05:31:48.387Z,99718.03
2024-01-05T05:34:14.896Z,99722.09
2024-01-05T05:36:41.355Z,99720.97
2024-01-05T05:39:10.612Z,99719.84
2024-01-05T05:41:39.846Z,99718.69
2024-01-05T05:44:06.233Z,99721.03
2024-01-05T05:46:35.434Z,99718.25
2024-01-05T05:49:01.973Z,99721.84
2024-01-05T05:51:31.331Z,99730.53
2024-01-05T05:53:57.986Z,99735.81
2024-01-05T05:56:27.189Z,99734.88
2024-01-05T05:58:56.378Z,99731.34
2024-01-05T06:01:22.810Z,99745.97
2024-01-05T06:03:52.153Z,99748.28
2024-01-05T06:06:18.692Z,99751.13
2024-01-05T06:08:45.317Z,99764.97
2024-01-05T06:11:12.675Z,99766.53
2024-01-05T06:13:39.169Z,99774.06
2024-01-05T06:16:05.589Z,99767.41
2024-01-05T06:18:32.115Z,99771.72
2024-01-05T06:20:58.649Z,99770.50
2024-01-05T06:23:26.000Z,99770.06
2024-01-05T06:25:52.543Z,99770.50
2024-01-05T06:28:19.821Z,99779.25
2024-01-05T06:30:46.398Z,99780.84
2024-01-05T06:33:13.883Z,99777.19
2024-01-05T06:35:41.400Z,99786.00
2024-01-05T06:38:07.949Z,99783.94
2024-01-05T06:40:34.386Z,99780.84
2024-01-05T06:43:00.810Z,99790.75
2024-01-05T06:45:27.244Z,99784.03
2024-01-05T06:47:55.912Z,99797.50
2024-01-05T06:50:22.640Z,99800.16
2024-01-05T06:52:49.263Z,99807.75
2024-01-05T06:55:16.563Z,99805.34
2024-01-05T06:57:42.968Z,99809.34
2024-01-05T07:00:09.417Z,99812.81
2024-01-05T07:02:35.848Z,99822.75
2024-01-05T07:05:02.294Z,99813.94
2024-01-05T07:07:29.605Z,99814.00
2024-01-05T07:09:57.996Z,99821.91
2024-01-05T07:12:24.448Z,99818.72
2024-01-05T07:14:50.854Z,99823.47
2024-01-05T07:17:18.135Z,99822.69
2024-01-05T07:19:44.554Z,99822.28
2024-01-05T07:22:12.955Z,99821.97
2024-01-05T07:24:40.253Z,99820.63
2024-01-05T07:27:06.745Z,99814.81
2024-01-05T07:29:34.504Z,99808.38
2024-01-05T07:32:00.905Z,99815.13
2024-01-05T07:34:27.389Z,99812.81
2024-01-05T07:36:53.959Z,99816.38
2024-01-05T07:39:21.351Z,99819.50
2024-01-05T07:41:48.005Z,99817.94
2024-01-05T07:44:16.484Z,99824.28
2024-01-05T07:46:43.777Z,99827.47
2024-01-05T07:49:11.269Z,99825.88
2024-01-05T07:51:40.106Z,99829.88
2024-01-05T07:54:09.390Z,99829.09
2024-01-05T07:56:36.296Z,99835.81
2024-01-05T07:59:03.008Z,99837.03
2024-01-05T08:01:29.825Z,99839.00
2024-01-05T08:03:56.673Z,99832.22
2024-01-05T08:06:23.207Z,99839.41
2024-01-05T08:08:49.766Z,99836.22
2024-01-05T08:11:16.250Z,99847.00
2024-01-05T08:13:42.677Z,99844.19
2024-01-05T08:16:09.138Z,99846.59
2024-01-05T08:18:35.604Z,99847.38
2024-01-05T08:21:02.976Z,99854.88
2024-01-05T08:23:29.408Z,99854.88
2024-01-05T08:25:56.869Z,99856.06
2024-01-05T08:28:23.350Z,99869.97
2024-01-05T08:30:49.910Z,99863.56
2024-01-05T08:33:16.651Z,99872.34
2024-01-05T08:35:45.937Z,99868.31
2024-01-05T08:38:13.390Z,99869.19
2024-01-05T08:40:39.886Z,99857.63
2024-01-05T08:43:08.310Z,99870.78
2024-01-05T08:45:34.919Z,99873.94
2024-01-05T08:48:04.503Z,99875.84
2024-01-05T08:50:32.025Z,99877.00
2024-01-05T08:53:02.056Z,99889.31
2024-01-05T08:55:31.366Z,99892.88
2024-01-05T08:58:00.608Z,99892.16
2024-01-05T09:00:27.995Z,99900.06
2024-01-05T09:02:54.566Z,99901.38
2024-01-05T09:05:21.094Z,99905.69
2024-01-05T09:07:47.527Z,99908.84
2024-01-05T09:10:13.913Z,99900.88
2024-01-05T09:12:40.525Z,99900.94
2024-01-05T09:15:07.010Z,99902.06
2024-01-05T09:17:34.475Z,99910.00
2024-01-05T09:20:01.127Z,99904.84
2024-01-05T09:22:27.661Z,99916.00
2024-01-05T09:24:54.156Z,99914.78
2024-01-05T09:27:20.688Z,99918.66
2024-01-05T09:29:47.148Z,99925.09
2024-01-05T09:32:14.116Z,99916.72
2024-01-05T09:34:41.044Z,99917.16
2024-01-05T09:37:07.507Z,99917.91
2024-01-05T09:39:33.989Z,99922.66
2024-01-05T09:42:00.612Z,99927.03
2024-01-05T09:44:27.081Z,99919.91
2024-01-05T09:46:53.502Z,99919.94
2024-01-05T09:49:20.035Z,99919.97
2024-01-05T09:51:46.588Z,99912.03
2024-01-05T09:54:13.043Z,99914.78
2024-01-05T09:56:39.504Z,99901.72
2024-01-05T09:59:05.927Z,99902.56
2024-01-05T10:01:32.507Z,99904.16
2024-01-05T10:03:59.089Z,99917.22
2024-01-05T10:06:25.627Z,99908.09
2024-01-05T10:08:52.028Z,99902.56
2024-01-05T10:11:18.472Z,99901.78
2024-01-05T10:13:44.872Z,99912.44
2024-01-05T10:16:11.359Z,99917.63
2024-01-05T10:18:40.608Z,99921.97
2024-01-05T10:21:07.095Z,99937.91
2024-01-05T10:23:33.561Z,99927.53
2024-01-05T10:25:59.955Z,99932.81
2024-01-05T10:28:26.374Z,99938.56
2024-01-05T10:30:52.810Z,99938.19
2024-01-05T10:33:19.404Z,99943.72
2024-01-05T10:35:47.957Z,99946.91
2024-01-05T10:38:14.520Z,99962.38
2024-01-05T10:40:40.955Z,99958.84
2024-01-05T10:43:07.350Z,99959.25
2024-01-05T10:45:33.776Z,99955.66
2024-01-05T10:48:00.452Z,99949.28
2024-01-05T10:50:27.035Z,99967.16
2024-01-05T10:52:53.431Z,99955.66
2024-01-05T10:55:19.847Z,99950.91
2024-01-05T10:57:46.313Z,99962.00
2024-01-05T11:00:12.780Z,99958.06
2024-01-05T11:02:39.218Z,99959.66
2024-01-05T11:05:05.634Z,99955.66
2024-01-05T11:07:34.709Z,99958.88
2024-01-05T11:10:01.623Z,99955.69
2024-01-05T11:12:28.090Z,99956.06
2024-01-05T11:14:54.492Z,99949.28
2024-01-05T11:17:20.881Z,99951.28
2024-01-05T11:19:47.408Z,99948.91
2024-01-05T11:22:13.895Z,99944.94
2024-01-05T11:24:40.339Z,99935.84
2024-01-05T11:27:06.790Z,99945.75
2024-01-05T11:29:33.227Z,99935.84
2024-01-05T11:31:59.641Z,99940.56
2024-01-05T11:34:26.304Z,99945.31
2024-01-05T11:36:52.821Z,99950.88
2024-01-05T11:39:19.296Z,99955.22
2024-01-05T11:41:45.734Z,99967.13
2024-01-05T11:44:12.211Z,99961.19
2024-01-05T11:46:38.638Z,99967.53
2024-01-05T11:49:05.128Z,99961.19
2024-01-05T11:51:31.625Z,99958.44
2024-01-05T11:53:58.087Z,99962.75
2024-01-05T11:56:24.501Z,99949.28
2024-01-05T11:58:50.956Z,99946.13
2024-01-05T12:01:17.502Z,99957.56
2024-01-05T12:03:44.020Z,99956.81
2024-01-05T12:06:10.519Z,99967.16
2024-01-05T12:08:37.008Z,99968.34
2024-01-05T12:11:03.467Z,99965.56
2024-01-05T12:13:29.895Z,99965.53
2024-01-05T12:16:01.470Z,99962.41
2024-01-05T12:18:36.866Z,99973.88
2024-01-05T12:21:05.370Z,99970.31
2024-01-05T12:23:31.865Z,99975.09
2024-01-05T12:25:58.308Z,99967.53
2024-01-05T12:28:24.753Z,99970.72
2024-01-05T12:30:51.275Z,99973.13
2024-01-05T12:33:17.873Z,99965.13
2024-01-05T12:35:44.359Z,99963.56
2024-01-05T12:38:10.778Z,99969.97
2024-01-05T12:40:37.174Z,99971.53
2024-01-05T12:43:03.658Z,99967.97
2024-01-05T12:45:30.195Z,99958.44
2024-01-05T12:47:56.737Z,99968.78
2024-01-05T12:50:23.183Z,99964.44
2024-01-05T12:52:49.604Z,99954.50
2024-01-05T12:55:16.040Z,99951.34
2024-01-05T12:57:42.499Z,99953.75
2024-01-05T13:00:08.995Z,99946.19
2024-01-05T13:02:35.459Z,99958.91
2024-01-05T13:05:01.895Z,99950.97
2024-01-05T13:07:28.356Z,99955.28
2024-01-05T13:09:54.975Z,99945.75
2024-01-05T13:12:21.549Z,99946.19
2024-01-05T13:14:47.995Z,99952.91
2024-01-05T13:17:15.277Z,99937.88
2024-01-05T13:19:41.704Z,99954.91
2024-01-05T13:22:08.148Z,99945.00
2024-01-05T13:24:34.639Z,99949.41
2024-01-05T13:27:01.537Z,99945.00
2024-01-05T13:29:28.084Z,99953.75
2024-01-05T13:31:54.552Z,99954.16
2024-01-05T13:34:21.102Z,99963.66
2024-01-05T13:36:47.680Z,99972.78
2024-01-05T13:39:14.185Z,99975.97
2024-01-05T13:41:40.627Z,99966.81
2024-01-05T13:44:07.074Z,99971.56
2024-01-05T13:46:33.543Z,99968.44
2024-01-05T13:49:00.101Z,99970.84
2024-01-05T13:51:26.576Z,99979.53
2024-01-05T13:53:52.977Z,99977.13
2024-01-05T13:56:19.421Z,99979.09
2024-01-05T13:58:45.818Z,99973.94
2024-01-05T14:01:13.139Z,99980.63
2024-01-05T14:03:39.618Z,99976.66
2024-01-05T14:06:06.231Z,99985.75
2024-01-05T14:08:33.077Z,99979.03
2024-01-05T14:10:59.640Z,99982.13
2024-01-05T14:13:26.111Z,99980.94
2024-01-05T14:15:52.611Z,99975.81
2024-01-05T14:18:19.213Z,99963.50
2024-01-05T14:20:45.670Z,99970.22
2024-01-05T14:23:12.118Z,99975.78
2024-01-05T14:25:38.570Z,99982.09
2024-01-05T14:28:05.025Z,99970.59
2024-01-05T14:30:31.599Z,99969.81
2024-01-05T14:32:58.086Z,99958.69
2024-01-05T14:35:25.436Z,99961.06
2024-01-05T14:37:52.767Z,99960.28
2024-01-05T14:40:19.309Z,99951.53
2024-01-05T14:42:45.820Z,99955.13
2024-01-05T14:45:13.260Z,99956.69
2024-01-05T14:47:41.872Z,99946.78
2024-01-05T14:50:09.990Z,99953.09
2024-01-05T14:52:36.537Z,99958.25
2024-01-05T14:55:03.920Z,99959.41
2024-01-05T14:57:30.611Z,99949.13
2024-01-05T14:59:57.988Z,99962.63
2024-01-05T15:02:24.421Z,99967.41
2024-01-05T15:04:50.969Z,99971.34
2024-01-05T15:07:18.274Z,99978.50
2024-01-05T15:09:46.962Z,99969.81
2024-01-05T15:12:13.922Z,99974.22
2024-01-05T15:14:40.364Z,99973.88
2024-01-05T15:17:06.819Z,99977.06
2024-01-05T15:19:33.334Z,99988.16
2024-01-05T15:21:59.974Z,99975.94
2024-01-05T15:24:26.441Z,99979.09
2024-01-05T15:26:52.898Z,99977.47
2024-01-05T15:29:19.291Z,99979.44
2024-01-05T15:31:48.569Z,99983.41
2024-01-05T15:34:15.248Z,99977.88
2024-01-05T15:36:41.796Z,99984.63
2024-01-05T15:39:08.371Z,99970.34
2024-01-05T15:41:34.786Z,99973.91
2024-01-05T15:44:01.265Z,99969.16
2024-01-05T15:46:28.574Z,99968.41
2024-01-05T15:48:55.419Z,99967.59
2024-01-05T15:51:21.956Z,99971.19
2024-01-05T15:53:51.335Z,99974.34
2024-01-05T15:56:17.779Z,99975.13
2024-01-05T15:58:44.206Z,99979.09
2024-01-05T16:01:10.698Z,99983.88
2024-01-05T16:03:37.316Z,99989.81
2024-01-05T16:06:03.917Z,99978.31
2024-01-05T16:08:30.420Z,99974.34
2024-01-05T16:10:57.381Z,99966.78
2024-01-05T16:13:24.541Z,99970.41
2024-01-05T16:15:51.141Z,99978.31
2024-01-05T16:18:17.818Z,99979.50
2024-01-05T16:20:44.254Z,99987.03
2024-01-05T16:23:10.762Z,99980.22
2024-01-05T16:25:37.238Z,99975.94
2024-01-05T16:28:03.679Z,99973.16
2024-01-05T16:30:30.295Z,99972.31
2024-01-05T16:32:56.852Z,99972.31
2024-01-05T16:35:23.336Z,99978.28
2024-01-05T16:37:49.768Z,99978.66
2024-01-05T16:40:16.191Z,99992.94
2024-01-05T16:42:42.778Z,100006.44
2024-01-05T16:45:09.373Z,100008.03
2024-01-05T16:47:35.933Z,99993.34
2024-01-05T16:50:02.499Z,99987.41
2024-01-05T16:52:28.961Z,99981.81
2024-01-05T16:54:55.485Z,99981.47
2024-01-05T16:57:21.972Z,99977.50
2024-01-05T16:59:48.459Z,99992.19
2024-01-05T17:02:14.927Z,100002.06
2024-01-05T17:04:41.556Z,100003.28
2024-01-05T17:07:08.098Z,100015.94
2024-01-05T17:09:34.650Z,100020.34
2024-01-05T17:12:01.210Z,100012.81
2024-01-05T17:14:27.718Z,100010.41
2024-01-05T17:16:54.131Z,100021.53
2024-01-05T17:19:20.652Z,100017.19
2024-01-05T17:21:47.190Z,100014.38
2024-01-05T17:24:13.623Z,100021.88
2024-01-05T17:26:40.096Z,100015.16
2024-01-05T17:29:06.573Z,100004.09
2024-01-05T17:31:33.041Z,99991.78
2024-01-05T17:33:59.703Z,99992.22
2024-01-05T17:36:26.301Z,99988.19
2024-01-05T17:38:52.734Z,99991.75
2024-01-05T17:41:20.103Z,100000.41
2024-01-05T17:43:46.683Z,100008.75
2024-01-05T17:46:14.017Z,100012.28
2024-01-05T17:48:40.640Z,100009.88
2024-01-05T17:51:09.941Z,100011.47
2024-01-05T17:53:36.428Z,100019.03
2024-01-05T17:56:02.909Z,100011.09
2024-01-05T17:58:29.407Z,100008.31
2024-01-05T18:00:55.972Z,100021.41
2024-01-05T18:03:22.644Z,100026.16
2024-01-05T18:05:49.225Z,100028.53
2024-01-05T18:08:17.025Z,100032.50
2024-01-05T18:10:44.506Z,100036.06
2024-01-05T18:13:11.068Z,100024.97
2024-01-05T18:15:38.488Z,100024.16
2024-01-05T18:18:06.393Z,100033.31
2024-01-05T18:20:33.846Z,100035.28
2024-01-05T18:23:02.274Z,100035.72
2024-01-05T18:25:31.356Z,100023.34
2024-01-05T18:28:04.753Z,100021.00
2024-01-05T18:30:32.482Z,100014.66
2024-01-05T18:32:59.175Z,100019.03
2024-01-05T18:35:26.731Z,100026.94
2024-01-05T18:37:53.290Z,100019.00
2024-01-05T18:40:19.812Z,100027.72
2024-01-05T18:42:47.178Z,100030.50
2024-01-05T18:45:14.680Z,100027.31
2024-01-05T18:47:41.317Z,100034.47
2024-01-05T18:50:09.090Z,100060.28
2024-01-05T18:52:36.629Z,100054.28
2024-01-05T18:55:04.196Z,100055.50
2024-01-05T18:57:30.796Z,100066.59
2024-01-05T18:59:57.341Z,100067.41
2024-01-05T19:02:24.772Z,100063.06
2024-01-05T19:04:52.395Z,100072.56
2024-01-05T19:07:18.914Z,100072.97
2024-01-05T19:09:45.521Z,100074.97
2024-01-05T19:12:12.941Z,100080.16
2024-01-05T19:14:39.560Z,100078.53
2024-01-05T19:17:07.085Z,100076.56
2024-01-05T19:19:34.718Z,100083.31
2024-01-05T19:22:02.190Z,100088.03
2024-01-05T19:24:28.804Z,100080.94
2024-01-05T19:26:56.315Z,100076.56
2024-01-05T19:29:22.941Z,100075.78
2024-01-05T19:31:50.514Z,100064.66
2024-01-05T19:34:18.117Z,100068.63
2024-01-05T19:36:45.775Z,100066.66
2024-01-05T19:39:14.284Z,100069.47
2024-01-05T19:41:41.818Z,100068.63
2024-01-05T19:44:08.390Z,100064.28
2024-01-05T19:46:36.854Z,100066.69
2024-01-05T19:49:04.281Z,100059.91
2024-01-05T19:51:30.964Z,100050.03
2024-01-05T19:53:57.483Z,100047.63
2024-01-05T19:56:23.999Z,100055.75
2024-01-05T19:58:50.517Z,100048.50
2024-01-05T20:01:18.008Z,100056.47
2024-01-05T20:03:45.555Z,100054.06
2024-01-05T20:06:12.166Z,100044.56
2024-01-05T20:08:39.683Z,100045.75
2024-01-05T20:11:07.225Z,100030.69
2024-01-05T20:13:33.755Z,100027.91
2024-01-05T20:16:00.342Z,100032.31
2024-01-05T20:18:27.062Z,100029.16
2024-01-05T20:20:54.596Z,100036.31
2024-01-05T20:23:21.200Z,100038.31
2024-01-05T20:25:49.606Z,100035.50
2024-01-05T20:28:16.946Z,100024.78
2024-01-05T20:30:46.242Z,100023.19
2024-01-05T20:33:12.927Z,100014.75
2024-01-05T20:35:39.459Z,100010.06
2024-01-05T20:38:05.888Z,100012.44
2024-01-05T20:40:32.357Z,100015.59
2024-01-05T20:42:58.894Z,100007.25
2024-01-05T20:45:25.422Z,100007.69
2024-01-05T20:47:52.063Z,100001.38
2024-01-05T20:50:18.594Z,100002.91
2024-01-05T20:52:45.055Z,99997.78
2024-01-05T20:55:12.342Z,99998.19
2024-01-05T20:57:38.778Z,99997.00
2024-01-05T21:00:05.393Z,100002.22
2024-01-05T21:02:31.937Z,99989.50
2024-01-05T21:05:00.493Z,99981.53
2024-01-05T21:07:27.157Z,99983.09
2024-01-05T21:09:54.710Z,99991.47
2024-01-05T21:12:21.272Z,99994.66
2024-01-05T21:14:47.727Z,99995.84
2024-01-05T21:17:15.055Z,99997.00
2024-01-05T21:19:41.847Z,99998.22
2024-01-05T21:22:08.473Z,99988.72
2024-01-05T21:24:34.957Z,99987.78
2024-01-05T21:27:01.408Z,99977.06
2024-01-05T21:29:27.838Z,99977.91
2024-01-05T21:31:54.349Z,99975.00
2024-01-05T21:34:21.756Z,99969.28
2024-01-05T21:36:48.375Z,99976.16
2024-01-05T21:39:14.873Z,99967.81
2024-01-05T21:41:41.314Z,99966.72
2024-01-05T21:44:07.779Z,99969.44
2024-01-05T21:46:34.328Z,99971.44
2024-01-05T21:49:00.889Z,99979.03
2024-01-05T21:51:27.390Z,99979.81
2024-01-05T21:53:53.847Z,99977.06
2024-01-05T21:56:21.145Z,99974.28
2024-01-05T21:58:47.652Z,99977.47
2024-01-05T22:01:14.224Z,99972.31
2024-01-05T22:03:40.846Z,99971.44
2024-01-05T22:06:07.432Z,99969.47
2024-01-05T22:08:33.978Z,99966.44
2024-01-05T22:11:00.450Z,99970.78
2024-01-05T22:13:26.923Z,99971.94
2024-01-05T22:15:53.383Z,99970.03
2024-01-05T22:18:20.000Z,99972.50
2024-01-05T22:20:46.495Z,99976.72
2024-01-05T22:23:12.920Z,99971.22
2024-01-05T22:25:39.339Z,99968.91
2024-01-05T22:28:05.794Z,99970.41
2024-01-05T22:30:32.282Z,99965.78
2024-01-05T22:32:58.868Z,99962.50
2024-01-05T22:35:25.346Z,99959.72
2024-01-05T22:37:51.786Z,99957.00
2024-01-05T22:40:18.232Z,99956.66
2024-01-05T22:42:44.717Z,99953.47
2024-01-05T22:45:11.320Z,99945.53
2024-01-05T22:47:37.838Z,99948.38
2024-01-05T22:50:04.379Z,99953.88
2024-01-05T22:52:30.818Z,99957.84
2024-01-05T22:54:57.601Z,99955.81
2024-01-05T22:57:24.182Z,99957.44
2024-01-05T22:59:50.592Z,99961.88
2024-01-05T23:02:17.062Z,99962.19
2024-01-05T23:04:43.582Z,99964.59
2024-01-05T23:07:10.238Z,99964.19
2024-01-05T23:09:36.783Z,99961.44
2024-01-05T23:12:03.208Z,99969.41
2024-01-05T23:14:29.652Z,99964.59
2024-01-05T23:16:56.091Z,99973.38
2024-01-05T23:19:22.554Z,99981.31
2024-01-05T23:21:49.133Z,99980.53
2024-01-05T23:24:15.653Z,99984.50
2024-01-05T23:26:42.105Z,99983.34
2024-01-05T23:29:08.536Z,99986.44
2024-01-05T23:31:35.055Z,99991.28
2024-01-05T23:34:11.656Z,99997.59
2024-01-05T23:36:42.671Z,99990.38
2024-01-05T23:39:09.246Z,99989.69
2024-01-05T23:41:35.728Z,99990.84
2024-01-05T23:44:02.131Z,99996.38
2024-01-05T23:46:28.545Z,99991.28
2024-01-05T23:48:55.030Z,99989.63
2024-01-05T23:51:21.478Z,99987.66
2024-01-05T23:53:47.940Z,99996.81
2024-01-05T23:56:15.239Z,99992.84
2024-01-05T23:58:41.679Z,99994.00
